Time;durP1;ratioP1;P1;durP2;ratioP2;P2;SDS_P1;SDS_P2;PMS_P1;PMS_P2;Temp;Humidity;BMP_temperature;BMP_pressure;BME280_temperature;BME280_humidity;BME280_pressure;Samples;Min_cycle;Max_cycle;Signal;HPM_P1;HPM_P2
2022/04/06 00:01:31;;;;;;;3.47;2.92;;;9.90;84.30;;;;;;4972248;28;20072;-78
2022/04/06 00:03:56;;;;;;;3.60;2.95;;;9.90;84.30;;;;;;4996642;28;20040;-75
2022/04/06 00:06:22;;;;;;;3.28;2.75;;;9.90;84.30;;;;;;5009622;28;21364;-75
2022/04/06 00:08:47;;;;;;;2.75;2.40;;;9.90;84.20;;;;;;5008521;28;20079;-77
2022/04/06 00:11:13;;;;;;;4.60;3.03;;;10.00;84.40;;;;;;5000085;28;20148;-76
2022/04/06 00:13:39;;;;;;;3.08;2.78;;;10.00;84.30;;;;;;5009090;28;20042;-77
2022/04/06 00:16:10;;;;;;;3.05;2.50;;;10.00;84.30;;;;;;4990279;28;20048;-76
2022/04/06 00:18:36;;;;;;;;;;;10.00;84.40;;;;;;4991387;28;20049;-75
2022/04/06 00:21:02;;;;;;;2.85;2.53;;;10.00;84.20;;;;;;5023263;28;19951;-76
2022/04/06 00:23:28;;;;;;;2.95;2.67;;;10.00;84.10;;;;;;4999493;28;20033;-77
2022/04/06 00:25:55;;;;;;;3.17;2.80;;;10.00;84.20;;;;;;5003168;28;20605;-75
2022/04/06 00:28:21;;;;;;;3.35;3.05;;;10.00;84.20;;;;;;5011756;28;20057;-76
2022/04/06 00:30:46;;;;;;;2.85;2.55;;;9.90;84.30;;;;;;5011604;28;20030;-76
2022/04/06 00:33:12;;;;;;;2.95;2.55;;;10.00;84.30;;;;;;5021188;28;20794;-76
2022/04/06 00:35:37;;;;;;;3.05;2.72;;;9.90;84.30;;;;;;5013545;28;20586;-77
2022/04/06 00:38:05;;;;;;;3.30;2.83;;;9.90;84.30;;;;;;5008769;28;20117;-77
2022/04/06 00:40:32;;;;;;;3.20;2.72;;;10.00;84.40;;;;;;4996319;28;20040;-77
2022/04/06 00:42:58;;;;;;;3.05;2.42;;;9.90;84.40;;;;;;4995154;28;20039;-76
2022/04/06 00:45:23;;;;;;;3.35;2.70;;;10.00;84.40;;;;;;4995766;28;20530;-78
2022/04/06 00:47:50;;;;;;;3.08;2.55;;;10.00;84.40;;;;;;5019977;28;20047;-77
2022/04/06 00:50:15;;;;;;;3.30;2.97;;;9.90;84.40;;;;;;5001199;28;20052;-76
2022/04/06 00:52:41;;;;;;;7.15;2.83;;;9.90;84.40;;;;;;5015475;28;20037;-75
2022/04/06 00:55:07;;;;;;;3.33;2.63;;;10.00;84.40;;;;;;4975118;28;20100;-76
2022/04/06 00:57:33;;;;;;;3.00;2.70;;;9.90;84.40;;;;;;5014733;28;20053;-75
2022/04/06 00:59:58;;;;;;;2.90;2.35;;;10.00;84.40;;;;;;4975918;28;20169;-76
2022/04/06 01:02:24;;;;;;;3.20;2.70;;;10.00;84.40;;;;;;5018577;28;20041;-76
2022/04/06 01:04:50;;;;;;;3.30;2.38;;;9.90;84.40;;;;;;4995318;28;20087;-78
2022/04/06 01:07:15;;;;;;;2.97;2.50;;;10.00;84.50;;;;;;4993028;28;20448;-75
2022/04/06 01:09:41;;;;;;;2.95;2.38;;;10.00;84.50;;;;;;4980332;28;20508;-75
2022/04/06 01:12:07;;;;;;;3.05;2.75;;;10.00;84.50;;;;;;5015526;28;20038;-76
2022/04/06 01:14:32;;;;;;;4.15;2.70;;;10.00;84.50;;;;;;4991696;28;20598;-78
2022/04/06 01:16:59;;;;;;;3.25;2.55;;;9.90;84.40;;;;;;5009080;28;20057;-76
2022/04/06 01:19:30;;;;;;;2.92;2.65;;;10.00;84.50;;;;;;4996665;28;20046;-76
2022/04/06 01:21:55;;;;;;;3.15;2.85;;;10.00;84.60;;;;;;5008987;28;20060;-76
2022/04/06 01:24:21;;;;;;;2.58;2.30;;;10.00;84.50;;;;;;5000271;28;20049;-77
2022/04/06 01:26:48;;;;;;;2.30;2.08;;;10.00;84.60;;;;;;5002637;28;20029;-75
2022/04/06 01:29:13;;;;;;;4.25;2.15;;;10.00;84.60;;;;;;5025656;28;20088;-76
2022/04/06 01:31:39;;;;;;;2.53;2.08;;;10.00;84.60;;;;;;4993420;28;20045;-77
2022/04/06 01:34:04;;;;;;;3.10;2.55;;;10.00;84.60;;;;;;4996379;28;20112;-76
2022/04/06 01:36:30;;;;;;;3.35;2.75;;;10.00;84.60;;;;;;5012985;28;20053;-75
2022/04/06 01:38:55;;;;;;;3.38;2.40;;;10.00;84.60;;;;;;5009833;28;20044;-76
2022/04/06 01:41:21;;;;;;;3.10;2.72;;;10.00;84.70;;;;;;4985151;28;20042;-76
2022/04/06 01:43:46;;;;;;;3.65;2.88;;;10.00;84.70;;;;;;5025840;28;20037;-76
2022/04/06 01:46:12;;;;;;;4.00;3.03;;;10.00;84.70;;;;;;5005582;28;20030;-76
2022/04/06 01:52:11;;;;;;;4.43;2.97;;;10.00;84.80;;;;;;4982535;28;20075;-76
2022/04/06 01:54:07;;;;;;;3.30;2.72;;;10.00;84.90;;;;;;5011747;28;20076;-76
2022/04/06 01:56:32;;;;;;;3.33;2.53;;;10.00;84.90;;;;;;5000563;28;20088;-76
2022/04/06 01:58:59;;;;;;;5.35;3.00;;;10.00;84.90;;;;;;5014955;28;21547;-75
2022/04/06 02:01:24;;;;;;;3.40;3.10;;;10.00;85.10;;;;;;5006455;28;20033;-77
2022/04/06 02:03:50;;;;;;;3.40;3.10;;;10.00;85.10;;;;;;5006088;28;20089;-77
2022/04/06 02:06:15;;;;;;;4.25;3.22;;;10.00;85.20;;;;;;5007889;28;20124;-76
2022/04/06 02:08:41;;;;;;;3.20;2.90;;;10.00;85.30;;;;;;5014609;28;20046;-76
2022/04/06 02:11:07;;;;;;;3.25;2.70;;;9.90;85.20;;;;;;5000584;28;20401;-75
2022/04/06 02:13:32;;;;;;;5.10;3.10;;;10.00;85.30;;;;;;5029359;28;20097;-75
2022/04/06 02:15:58;;;;;;;3.45;3.15;;;10.00;85.30;;;;;;5024395;28;20096;-77
2022/04/06 02:18:23;;;;;;;5.88;3.58;;;9.90;85.30;;;;;;4999940;28;20493;-77
2022/04/06 02:20:49;;;;;;;4.05;3.25;;;9.90;85.20;;;;;;4997726;28;20033;-77
2022/04/06 02:23:14;;;;;;;4.03;3.50;;;9.90;85.20;;;;;;4989029;28;20117;-76
2022/04/06 02:25:40;;;;;;;3.85;3.22;;;10.00;85.30;;;;;;4968628;28;20136;-77
2022/04/06 02:28:06;;;;;;;4.25;3.45;;;9.90;85.20;;;;;;4983136;28;20479;-76
2022/04/06 02:30:31;;;;;;;4.55;3.80;;;9.90;85.20;;;;;;4994030;28;20042;-77
2022/04/06 02:32:57;;;;;;;4.18;3.70;;;9.90;86.10;;;;;;4997762;28;20072;-76
2022/04/06 02:35:22;;;;;;;5.72;3.40;;;9.90;85.20;;;;;;5009246;28;20124;-76
2022/04/06 02:37:48;;;;;;;4.85;3.80;;;9.90;85.30;;;;;;4987011;28;20129;-76
2022/04/06 02:40:14;;;;;;;6.28;3.75;;;9.90;85.30;;;;;;4993159;28;20117;-76
2022/04/06 02:42:39;;;;;;;5.85;3.63;;;9.90;85.30;;;;;;4986682;28;20050;-76
2022/04/06 02:45:05;;;;;;;4.50;3.65;;;9.90;85.30;;;;;;4990420;28;20044;-75
2022/04/06 02:47:31;;;;;;;4.10;3.70;;;9.90;85.40;;;;;;4995527;28;20557;-76
2022/04/06 02:49:56;;;;;;;6.97;3.75;;;9.90;85.50;;;;;;4991829;28;20042;-77
2022/04/06 02:52:22;;;;;;;4.13;3.70;;;9.90;85.50;;;;;;4986994;28;21775;-77
2022/04/06 02:54:47;;;;;;;4.97;4.00;;;9.90;85.60;;;;;;4986836;28;20041;-76
2022/04/06 02:57:13;;;;;;;6.50;3.88;;;9.90;85.60;;;;;;5008302;28;20053;-76
2022/04/06 02:59:40;;;;;;;4.38;3.72;;;9.90;85.70;;;;;;4974179;28;20112;-76
2022/04/06 03:02:05;;;;;;;4.75;3.60;;;9.90;85.70;;;;;;4969453;28;20124;-76
2022/04/06 03:04:31;;;;;;;4.38;3.47;;;9.90;85.90;;;;;;4990816;28;20114;-76
2022/04/06 03:06:56;;;;;;;5.25;3.85;;;9.90;85.90;;;;;;4983146;28;20038;-78
2022/04/06 03:09:22;;;;;;;5.13;3.60;;;9.80;85.90;;;;;;4977471;28;20088;-76
2022/04/06 03:11:48;;;;;;;4.78;4.00;;;9.90;86.00;;;;;;4994868;28;20041;-76
2022/04/06 03:14:13;;;;;;;4.18;3.55;;;9.80;86.00;;;;;;5012023;28;20038;-76
2022/04/06 03:16:39;;;;;;;6.10;4.85;;;9.80;86.20;;;;;;4971798;28;20037;-76
2022/04/06 03:19:04;;;;;;;4.88;3.90;;;9.80;86.20;;;;;;5006811;28;20100;-76
2022/04/06 03:21:30;;;;;;;5.05;4.00;;;9.80;86.30;;;;;;4996584;28;20122;-76
2022/04/06 03:23:55;;;;;;;5.63;4.03;;;9.80;86.40;;;;;;4995510;28;20763;-76
2022/04/06 03:26:21;;;;;;;4.70;3.88;;;9.80;86.40;;;;;;4998915;28;20037;-76
2022/04/06 03:28:46;;;;;;;6.50;4.97;;;9.80;86.50;;;;;;5009504;28;20025;-76
2022/04/06 03:31:12;;;;;;;5.25;4.15;;;9.80;86.50;;;;;;4995821;28;20112;-76
2022/04/06 03:33:37;;;;;;;6.25;4.65;;;9.70;86.50;;;;;;5001751;28;20041;-76
2022/04/06 03:36:03;;;;;;;7.10;4.00;;;9.70;86.50;;;;;;5027401;28;20033;-75
2022/04/06 03:38:29;;;;;;;91.50;66.55;;;9.70;86.60;;;;;;4999052;28;20037;-77
2022/04/06 03:40:54;;;;;;;28.40;23.92;;;9.80;86.70;;;;;;5000834;28;20038;-75
2022/04/06 03:43:21;;;;;;;11.70;10.45;;;9.80;86.70;;;;;;5000760;28;20033;-76
2022/04/06 03:45:46;;;;;;;11.40;9.90;;;9.70;86.70;;;;;;4987126;28;20049;-77
2022/04/06 03:48:12;;;;;;;9.00;6.82;;;9.70;86.80;;;;;;5006396;28;20037;-76
2022/04/06 03:50:38;;;;;;;7.88;6.70;;;9.80;87.00;;;;;;5015731;28;20034;-76
2022/04/06 03:53:03;;;;;;;8.18;7.20;;;9.70;86.80;;;;;;5003002;28;20351;-76
2022/04/06 03:55:29;;;;;;;7.75;5.93;;;9.70;86.90;;;;;;4983920;28;20739;-76
2022/04/06 03:57:54;;;;;;;7.25;5.70;;;9.70;86.80;;;;;;5015551;28;20057;-78
2022/04/06 04:00:20;;;;;;;7.07;5.47;;;9.70;86.90;;;;;;5019867;28;20040;-77
2022/04/06 04:02:48;;;;;;;5.00;4.45;;;9.70;86.90;;;;;;4986021;28;20037;-75
2022/04/06 04:05:14;;;;;;;9.50;6.10;;;9.70;86.90;;;;;;5002390;28;20557;-77
2022/04/06 04:07:39;;;;;;;11.40;7.45;;;9.70;87.00;;;;;;5015576;28;20050;-76
2022/04/06 04:10:11;;;;;;;15.70;8.55;;;9.70;87.00;;;;;;4996876;28;20029;-76
2022/04/06 04:12:38;;;;;;;15.75;8.48;;;9.70;87.10;;;;;;5007405;28;20053;-75
2022/04/06 04:15:04;;;;;;;16.38;9.40;;;9.70;87.10;;;;;;4992021;28;20034;-75
2022/04/06 04:17:29;;;;;;;13.15;8.52;;;9.60;87.10;;;;;;4990320;28;20037;-75
2022/04/06 04:19:56;;;;;;;12.25;5.20;;;9.70;87.10;;;;;;4990779;28;20117;-76
2022/04/06 04:22:22;;;;;;;6.63;4.40;;;9.70;87.20;;;;;;4988486;28;20146;-75
2022/04/06 04:24:48;;;;;;;17.73;9.63;;;9.60;87.20;;;;;;5004153;28;20770;-76
2022/04/06 04:27:13;;;;;;;19.83;10.45;;;9.70;87.20;;;;;;4980294;28;20049;-76
2022/04/06 04:29:39;;;;;;;7.28;4.90;;;9.70;87.20;;;;;;5017194;28;20030;-76
2022/04/06 04:32:05;;;;;;;5.57;4.80;;;9.70;87.30;;;;;;4990821;28;20052;-75
2022/04/06 04:34:30;;;;;;;6.28;4.80;;;9.60;87.30;;;;;;4980488;28;20116;-74
2022/04/06 04:36:56;;;;;;;6.82;4.65;;;9.60;87.20;;;;;;4977099;28;20068;-76
2022/04/06 04:39:21;;;;;;;5.55;4.88;;;9.60;87.30;;;;;;4974916;28;20037;-75
2022/04/06 04:41:47;;;;;;;5.78;4.60;;;9.60;87.30;;;;;;4968414;28;20034;-75
2022/04/06 04:44:13;;;;;;;5.13;4.20;;;9.60;87.30;;;;;;4961968;28;20510;-75
2022/04/06 04:46:39;;;;;;;6.15;4.68;;;9.60;87.30;;;;;;4963946;28;20061;-75
2022/04/06 04:49:04;;;;;;;7.43;5.03;;;9.60;87.30;;;;;;4975310;28;20030;-76
2022/04/06 04:51:30;;;;;;;8.18;5.00;;;9.60;87.30;;;;;;4986589;28;20442;-73
2022/04/06 04:53:57;;;;;;;5.78;4.68;;;9.60;87.40;;;;;;4973271;28;20041;-76
2022/04/06 04:56:24;;;;;;;7.43;5.43;;;9.60;87.40;;;;;;4962840;28;20049;-76
2022/04/06 04:58:50;;;;;;;7.78;5.00;;;9.60;87.50;;;;;;4988918;28;20037;-75
2022/04/06 05:01:16;;;;;;;5.75;4.72;;;9.60;87.40;;;;;;4973459;28;20541;-75
2022/04/06 05:03:41;;;;;;;7.03;4.82;;;9.60;87.40;;;;;;4975581;28;20534;-75
2022/04/06 05:06:07;;;;;;;9.10;4.75;;;9.60;87.40;;;;;;4967996;28;20084;-76
2022/04/06 05:08:32;;;;;;;8.15;5.70;;;9.60;87.30;;;;;;4972744;28;20799;-75
2022/04/06 05:10:58;;;;;;;6.57;5.00;;;9.60;87.30;;;;;;4985922;28;20026;-76
2022/04/06 05:13:24;;;;;;;23.15;13.68;;;9.60;87.40;;;;;;5001609;28;20534;-75
2022/04/06 05:15:49;;;;;;;10.77;7.43;;;9.60;87.40;;;;;;4977212;28;20049;-76
2022/04/06 05:18:15;;;;;;;7.38;5.68;;;9.60;87.40;;;;;;5011373;28;20041;-75
2022/04/06 05:20:40;;;;;;;8.95;6.32;;;9.60;87.40;;;;;;5006315;28;20034;-75
2022/04/06 05:23:06;;;;;;;8.13;4.85;;;9.60;87.40;;;;;;5031411;28;20125;-74
2022/04/06 05:25:31;;;;;;;9.18;6.07;;;9.60;87.30;;;;;;5003911;28;20037;-74
2022/04/06 05:27:57;;;;;;;8.48;5.90;;;9.60;87.30;;;;;;5018298;28;20446;-76
2022/04/06 05:30:23;;;;;;;11.07;6.03;;;9.60;87.30;;;;;;5010810;28;20849;-75
2022/04/06 05:32:50;;;;;;;9.07;6.10;;;9.60;87.40;;;;;;4992107;28;20636;-75
2022/04/06 05:35:16;;;;;;;8.25;5.95;;;9.60;87.40;;;;;;4991156;28;20425;-75
2022/04/06 05:37:42;;;;;;;7.00;5.65;;;9.60;87.40;;;;;;5019831;28;20205;-76
2022/04/06 05:40:09;;;;;;;8.05;6.03;;;9.70;87.40;;;;;;5000967;28;20041;-75
2022/04/06 05:42:34;;;;;;;7.90;5.68;;;9.60;87.40;;;;;;5016637;28;20060;-75
2022/04/06 05:45:00;;;;;;;8.00;5.85;;;9.60;87.30;;;;;;5031233;28;20530;-75
2022/04/06 05:47:26;;;;;;;10.70;6.57;;;9.70;87.50;;;;;;5028023;28;20107;-76
2022/04/06 05:49:51;;;;;;;11.88;7.40;;;9.70;87.40;;;;;;5005190;28;20534;-76
2022/04/06 05:52:17;;;;;;;9.40;7.00;;;9.70;87.40;;;;;;5014987;28;20435;-76
2022/04/06 05:54:42;;;;;;;11.95;6.80;;;9.70;87.40;;;;;;5001596;28;20164;-76
2022/04/06 05:57:08;;;;;;;12.40;7.25;;;9.70;87.40;;;;;;5000491;28;20030;-76
2022/04/06 05:59:36;;;;;;;7.80;5.65;;;9.70;87.40;;;;;;5000551;28;20224;-76
2022/04/06 06:02:02;;;;;;;7.75;5.82;;;9.70;87.50;;;;;;5006357;28;20037;-76
2022/04/06 06:04:28;;;;;;;6.45;4.90;;;9.70;87.40;;;;;;5013310;28;20044;-76
2022/04/06 06:06:53;;;;;;;9.30;5.70;;;9.70;87.40;;;;;;5027601;28;20033;-76
2022/04/06 06:09:19;;;;;;;7.78;4.97;;;9.70;87.30;;;;;;4990675;28;20463;-75
2022/04/06 06:11:44;;;;;;;7.78;5.70;;;9.70;87.30;;;;;;4993788;28;20683;-75
2022/04/06 06:14:10;;;;;;;6.35;5.13;;;9.70;87.40;;;;;;5009109;28;20101;-76
2022/04/06 06:16:35;;;;;;;6.97;5.30;;;9.80;87.40;;;;;;4999275;28;20105;-75
2022/04/06 06:19:01;;;;;;;8.55;5.20;;;9.80;87.40;;;;;;4973466;28;20125;-76
2022/04/06 06:21:31;;;;;;;9.07;5.72;;;9.80;87.50;;;;;;4985225;28;20125;-75
2022/04/06 06:24:00;;;;;;;6.28;4.88;;;9.80;87.20;;;;;;4977885;28;20118;-76
2022/04/06 06:26:25;;;;;;;7.95;5.45;;;9.80;87.20;;;;;;4982537;28;20506;-77
2022/04/06 06:28:51;;;;;;;6.60;5.35;;;9.80;87.20;;;;;;4997722;28;20040;-76
2022/04/06 06:31:16;;;;;;;7.20;5.43;;;9.80;87.20;;;;;;5005700;28;20114;-75
2022/04/06 06:33:42;;;;;;;6.30;4.90;;;9.90;87.20;;;;;;5010296;28;20064;-75
2022/04/06 06:36:07;;;;;;;5.70;4.88;;;9.80;87.10;;;;;;4981411;28;20038;-76
2022/04/06 06:38:33;;;;;;;6.20;4.65;;;9.80;87.10;;;;;;4994862;28;20569;-75
2022/04/06 06:40:59;;;;;;;5.85;4.70;;;9.90;87.10;;;;;;4991272;28;20531;-75
2022/04/06 06:43:24;;;;;;;8.13;4.85;;;9.90;87.10;;;;;;4962207;28;20867;-75
2022/04/06 06:45:50;;;;;;;6.43;5.07;;;9.90;87.00;;;;;;5017294;28;20038;-76
2022/04/06 06:48:15;;;;;;;8.43;4.68;;;9.90;86.90;;;;;;5002775;28;20033;-75
2022/04/06 06:50:41;;;;;;;8.90;4.97;;;9.90;86.80;;;;;;4996892;28;20052;-76
2022/04/06 06:53:06;;;;;;;8.10;4.88;;;9.90;86.80;;;;;;4972029;28;20521;-76
2022/04/06 06:55:32;;;;;;;7.53;4.95;;;9.90;86.60;;;;;;4996649;28;20046;-76
2022/04/06 06:57:57;;;;;;;7.75;4.60;;;10.00;86.60;;;;;;4993040;28;20514;-78
2022/04/06 07:00:23;;;;;;;6.88;4.43;;;10.00;86.50;;;;;;4992199;28;20075;-76
2022/04/06 07:02:49;;;;;;;7.68;4.82;;;10.00;86.50;;;;;;4964310;28;20087;-75
2022/04/06 07:05:14;;;;;;;8.23;4.97;;;10.10;86.40;;;;;;5000872;28;20090;-76
2022/04/06 07:07:56;;;;;;;7.53;5.15;;;10.10;86.40;;;;;;4980476;28;20038;-76
2022/04/06 07:10:22;;;;;;;6.43;4.70;;;10.10;86.40;;;;;;4979901;28;20045;-75
2022/04/06 07:12:48;;;;;;;5.22;4.53;;;10.10;86.10;;;;;;4990083;28;20049;-76
2022/04/06 07:15:14;;;;;;;6.35;4.93;;;10.20;86.10;;;;;;4989519;28;20049;-75
2022/04/06 07:17:39;;;;;;;7.93;4.70;;;10.20;86.00;;;;;;4991741;28;20030;-76
2022/04/06 07:20:06;;;;;;;8.13;5.65;;;10.20;86.00;;;;;;4985668;28;20034;-77
2022/04/06 07:22:31;;;;;;;8.00;5.45;;;10.20;85.90;;;;;;4970694;28;20045;-76
2022/04/06 07:24:57;;;;;;;8.75;5.45;;;10.30;85.80;;;;;;5004435;28;20116;-76
2022/04/06 07:27:22;;;;;;;6.53;4.60;;;10.30;85.70;;;;;;4963744;28;20482;-76
2022/04/06 07:29:48;;;;;;;7.95;5.32;;;10.30;85.70;;;;;;4990136;28;20078;-76
2022/04/06 07:32:13;;;;;;;7.65;5.43;;;10.30;85.60;;;;;;4967799;28;20061;-76
2022/04/06 07:34:39;;;;;;;9.32;6.15;;;10.40;85.50;;;;;;4993844;28;20037;-76
2022/04/06 07:37:04;;;;;;;7.10;5.28;;;10.30;85.40;;;;;;4972748;28;20048;-76
2022/04/06 07:39:30;;;;;;;8.30;6.07;;;10.40;85.40;;;;;;4982696;28;20039;-75
2022/04/06 07:41:56;;;;;;;7.35;5.07;;;10.40;85.30;;;;;;4948145;28;20267;-76
2022/04/06 07:44:22;;;;;;;9.70;5.40;;;10.40;85.30;;;;;;4990311;28;20045;-75
2022/04/06 07:46:48;;;;;;;8.18;5.38;;;10.40;85.30;;;;;;4989164;28;20034;-76
2022/04/06 07:49:14;;;;;;;9.00;5.32;;;10.40;85.30;;;;;;4987665;28;20096;-76
2022/04/06 07:51:39;;;;;;;6.78;5.03;;;10.40;85.20;;;;;;4958723;28;20031;-77
2022/04/06 07:54:05;;;;;;;7.05;5.47;;;10.40;85.10;;;;;;5005340;28;20736;-75
2022/04/06 07:56:30;;;;;;;8.35;5.57;;;10.40;85.00;;;;;;4976419;28;20029;-76
2022/04/06 07:58:56;;;;;;;8.52;5.28;;;10.40;85.00;;;;;;4981192;28;20033;-76
2022/04/06 08:01:21;;;;;;;7.80;5.07;;;10.40;84.90;;;;;;4980835;28;20045;-75
2022/04/06 08:03:47;;;;;;;10.15;4.85;;;10.40;84.80;;;;;;5025716;28;20049;-76
2022/04/06 08:06:12;;;;;;;8.82;5.32;;;10.50;84.80;;;;;;4994363;28;20026;-75
2022/04/06 08:08:38;;;;;;;8.60;5.78;;;10.50;84.80;;;;;;4984068;28;20048;-76
2022/04/06 08:11:05;;;;;;;12.90;6.80;;;10.50;84.70;;;;;;4987406;28;20033;-75
2022/04/06 08:13:33;;;;;;;11.35;6.50;;;10.50;84.60;;;;;;4986246;28;20034;-75
2022/04/06 08:15:59;;;;;;;13.02;6.75;;;10.50;84.60;;;;;;4991350;28;20054;-75
2022/04/06 08:18:25;;;;;;;13.68;6.15;;;10.50;84.50;;;;;;5012906;28;20026;-75
2022/04/06 08:20:50;;;;;;;7.93;6.22;;;10.60;84.50;;;;;;5002721;28;20050;-76
2022/04/06 08:23:20;;;;;;;13.25;9.85;;;10.60;84.50;;;;;;5010821;28;20060;-76
2022/04/06 08:25:46;;;;;;;16.25;10.02;;;10.60;84.50;;;;;;5014348;28;20033;-75
2022/04/06 08:28:12;;;;;;;24.90;14.52;;;10.70;84.50;;;;;;5002378;28;20061;-78
2022/04/06 08:30:41;;;;;;;10.75;7.18;;;10.70;84.40;;;;;;5017169;28;20037;-76
2022/04/06 08:33:07;;;;;;;10.05;6.05;;;10.80;84.20;;;;;;5012830;28;20653;-76
2022/04/06 08:35:33;;;;;;;22.98;14.27;;;10.80;84.00;;;;;;5012397;28;20037;-76
2022/04/06 08:37:58;;;;;;;10.88;7.20;;;10.90;83.90;;;;;;4996521;28;20033;-76
2022/04/06 08:40:24;;;;;;;8.32;6.15;;;10.90;83.80;;;;;;5006974;28;20045;-76
2022/04/06 08:42:50;;;;;;;8.80;6.43;;;10.90;83.70;;;;;;5010965;28;20141;-76
2022/04/06 08:45:18;;;;;;;12.95;8.95;;;10.90;83.60;;;;;;5019017;28;20376;-76
2022/04/06 08:47:46;;;;;;;11.45;6.38;;;10.90;83.40;;;;;;5016842;28;20055;-76
2022/04/06 08:50:40;;;;;;;9.63;5.47;;;11.00;83.40;;;;;;5025089;28;21012;-76
2022/04/06 08:53:06;;;;;;;10.73;6.28;;;11.00;83.30;;;;;;5006077;28;20072;-76
2022/04/06 08:55:32;;;;;;;7.63;5.93;;;11.00;83.30;;;;;;5022033;28;20156;-77
2022/04/06 08:57:58;;;;;;;6.85;6.05;;;11.10;83.30;;;;;;4991543;28;20044;-75
2022/04/06 09:00:23;;;;;;;10.68;5.75;;;11.20;83.50;;;;;;5010672;28;20045;-75
2022/04/06 09:02:49;;;;;;;11.43;6.03;;;11.30;83.50;;;;;;5003697;28;20516;-76
2022/04/06 09:05:14;;;;;;;8.50;5.65;;;11.50;83.40;;;;;;5008138;28;21051;-76
2022/04/06 09:07:40;;;;;;;12.52;5.57;;;11.50;83.00;;;;;;4999608;28;20053;-77
2022/04/06 09:10:06;;;;;;;8.48;6.15;;;11.60;82.80;;;;;;5010078;28;20109;-76
2022/04/06 09:12:31;;;;;;;8.80;5.82;;;11.70;82.60;;;;;;5021658;28;20025;-76
2022/04/06 09:15:07;;;;;;;8.52;5.95;;;11.70;82.40;;;;;;5027802;28;20034;-76
2022/04/06 09:17:46;;;;;;;22.02;15.57;;;11.80;82.00;;;;;;5034555;28;20055;-76
2022/04/06 09:20:13;;;;;;;8.48;6.57;;;11.90;81.80;;;;;;5028028;28;20037;-75
2022/04/06 09:22:39;;;;;;;12.00;5.60;;;11.90;81.80;;;;;;5014019;28;20063;-76
2022/04/06 09:25:05;;;;;;;10.13;5.38;;;11.90;81.70;;;;;;4990783;28;20677;-77
2022/04/06 09:27:33;;;;;;;10.70;6.03;;;12.00;81.60;;;;;;4995752;28;20033;-76
2022/04/06 09:30:02;;;;;;;7.32;5.65;;;12.00;81.30;;;;;;4994196;28;20411;-75
2022/04/06 09:32:27;;;;;;;12.13;7.28;;;12.00;81.20;;;;;;5016625;28;20126;-76
2022/04/06 09:34:53;;;;;;;12.38;6.35;;;12.10;81.20;;;;;;5012779;28;20033;-76
2022/04/06 09:37:24;;;;;;;10.25;7.13;;;12.10;81.10;;;;;;4984741;28;20081;-75
2022/04/06 09:39:50;;;;;;;12.18;6.00;;;12.20;80.90;;;;;;4988878;28;20036;-77
2022/04/06 09:42:22;;;;;;;9.32;5.80;;;12.30;81.10;;;;;;4985159;28;20053;-76
2022/04/06 09:47:38;;;;;;;8.10;5.35;;;12.70;80.90;;;;;;4981684;28;20040;-76
2022/04/06 09:50:19;;;;;;;8.60;5.35;;;12.80;80.40;;;;;;4992013;28;20152;-75
2022/04/06 09:52:45;;;;;;;6.65;5.03;;;12.90;79.70;;;;;;5019915;28;20060;-77
2022/04/06 10:16:12;;;;;;;6.43;3.70;;;13.10;77.50;;;;;;5035166;27;20350;-76
2022/04/06 10:18:38;;;;;;;4.07;3.30;;;13.10;78.00;;;;;;5021014;28;20031;-76
2022/04/06 10:21:30;;;;;;;6.38;3.60;;;13.10;78.00;;;;;;5022204;28;20060;-76
2022/04/06 10:24:14;;;;;;;;;;;13.10;78.00;;;;;;5037146;28;20472;-76
2022/04/06 10:26:46;;;;;;;6.30;3.33;;;13.10;78.10;;;;;;5036043;28;20373;-77
2022/04/06 10:29:12;;;;;;;5.90;3.53;;;13.20;78.00;;;;;;5033110;28;20045;-77
2022/04/06 10:31:37;;;;;;;4.00;2.83;;;13.20;77.60;;;;;;5035589;28;20033;-77
2022/04/06 10:34:28;;;;;;;10.50;4.63;;;13.30;77.50;;;;;;5010165;28;20120;-76
2022/04/06 10:37:06;;;;;;;8.30;4.63;;;13.30;76.60;;;;;;5017158;28;20041;-77
2022/04/06 10:39:33;;;;;;;9.30;5.20;;;13.30;76.60;;;;;;5033501;28;20485;-77
2022/04/06 10:42:28;;;;;;;8.30;4.40;;;13.40;76.70;;;;;;5018916;28;20125;-76
2022/04/06 10:44:53;;;;;;;7.07;3.85;;;13.40;76.30;;;;;;5019085;28;20036;-77
2022/04/06 10:47:19;;;;;;;5.60;4.30;;;13.50;76.60;;;;;;5019826;28;20078;-78
2022/04/06 10:49:45;;;;;;;7.45;4.60;;;13.50;76.40;;;;;;5006983;28;20029;-77
2022/04/06 10:52:22;;;;;;;6.60;4.50;;;13.70;76.60;;;;;;5017206;28;20039;-77
2022/04/06 10:54:48;;;;;;;8.32;4.88;;;13.90;76.50;;;;;;5031722;28;20048;-77
2022/04/06 10:57:14;;;;;;;9.30;4.10;;;14.20;76.40;;;;;;5012707;28;20066;-77
2022/04/06 10:59:39;;;;;;;5.68;3.00;;;14.50;75.80;;;;;;5021051;28;20489;-77
2022/04/06 11:02:16;;;;;;;3.80;2.90;;;14.70;75.00;;;;;;5032823;28;20724;-78
2022/04/06 11:04:42;;;;;;;6.00;2.75;;;14.80;73.60;;;;;;5014041;28;20037;-78
2022/04/06 11:07:08;;;;;;;6.22;2.70;;;14.90;73.60;;;;;;5012122;28;20029;-78
2022/04/06 11:12:21;;;;;;;5.25;2.72;;;15.00;72.40;;;;;;5027398;28;20039;-77
2022/04/06 11:15:07;;;;;;;6.95;2.55;;;15.00;72.10;;;;;;5034121;28;20091;-78
2022/04/06 11:17:44;;;;;;;3.75;2.20;;;15.00;71.80;;;;;;5016574;28;20179;-78
2022/04/06 11:20:16;;;;;;;5.60;3.08;;;15.00;71.50;;;;;;5010939;28;20052;-78
2022/04/06 11:22:54;;;;;;;3.80;2.88;;;15.00;71.40;;;;;;5018350;28;20041;-77
2022/04/06 11:25:21;;;;;;;6.97;2.42;;;15.10;71.40;;;;;;5013941;28;20199;-77
2022/04/06 11:27:47;;;;;;;4.55;2.40;;;15.20;71.00;;;;;;4990593;28;20532;-77
2022/04/06 11:30:16;;;;;;;3.95;2.85;;;15.20;70.70;;;;;;5009806;28;20042;-77
2022/04/06 11:33:03;;;;;;;4.25;2.30;;;15.30;70.30;;;;;;4977116;28;20040;-78
2022/04/06 11:35:29;;;;;;;2.17;1.98;;;15.40;68.90;;;;;;5035799;28;20070;-77
2022/04/06 11:37:55;;;;;;;3.20;2.20;;;15.50;69.70;;;;;;4987990;28;20123;-77
2022/04/06 11:40:22;;;;;;;2.78;2.35;;;15.50;69.40;;;;;;5013715;28;20029;-77
2022/04/06 11:42:48;;;;;;;4.63;2.78;;;15.60;69.10;;;;;;5003872;28;20064;-78
2022/04/06 11:45:23;;;;;;;4.22;2.08;;;15.70;68.60;;;;;;5005758;28;20041;-76
2022/04/06 11:47:53;;;;;;;11.98;6.32;;;15.80;67.90;;;;;;5010107;28;20158;-79
2022/04/06 11:50:18;;;;;;;7.72;3.28;;;16.00;67.60;;;;;;5007150;28;20049;-77
2022/04/06 11:52:44;;;;;;;4.35;2.42;;;16.10;67.40;;;;;;5022238;28;20034;-76
2022/04/06 11:55:09;;;;;;;32.53;15.05;;;16.20;67.00;;;;;;5001684;28;20037;-77
2022/04/06 11:57:45;;;;;;;3.15;2.28;;;16.20;66.20;;;;;;5016768;28;20045;-77
2022/04/06 12:00:13;;;;;;;15.20;7.00;;;16.20;65.70;;;;;;4998987;28;20117;-77
2022/04/06 12:02:55;;;;;;;7.15;4.28;;;16.20;65.80;;;;;;4984854;28;20116;-78
2022/04/06 12:05:22;;;;;;;4.30;2.75;;;16.30;64.60;;;;;;5018317;28;20033;-78
2022/04/06 12:07:47;;;;;;;2.80;2.20;;;16.50;65.60;;;;;;5019721;28;20647;-77
2022/04/06 12:10:14;;;;;;;4.13;1.80;;;16.70;65.20;;;;;;5000154;28;20052;-77
2022/04/06 12:12:40;;;;;;;4.45;2.05;;;16.90;64.80;;;;;;5021205;28;20119;-77
2022/04/06 12:15:06;;;;;;;4.20;2.38;;;17.10;64.70;;;;;;4982863;28;20812;-77
2022/04/06 12:17:35;;;;;;;4.65;2.00;;;17.30;64.20;;;;;;4989650;28;20030;-77
2022/04/06 12:20:01;;;;;;;3.65;2.08;;;17.50;63.40;;;;;;5005425;28;20049;-77
2022/04/06 12:22:27;;;;;;;3.88;2.03;;;17.50;63.10;;;;;;4997189;28;20485;-78
2022/04/06 12:24:52;;;;;;;3.55;2.30;;;17.60;62.80;;;;;;5011296;28;20037;-77
2022/04/06 12:27:30;;;;;;;2.67;1.63;;;17.60;62.40;;;;;;5021679;28;20803;-77
2022/04/06 12:30:04;;;;;;;2.88;1.83;;;17.60;60.90;;;;;;5015957;28;20587;-77
2022/04/06 12:32:44;;;;;;;4.25;2.08;;;17.60;61.20;;;;;;5005644;28;20133;-77
2022/04/06 12:35:20;;;;;;;4.07;1.73;;;17.60;60.60;;;;;;5012919;28;20556;-78
2022/04/06 12:37:46;;;;;;;4.97;1.88;;;17.60;60.20;;;;;;5008333;28;20420;-77
2022/04/06 12:40:19;;;;;;;5.03;2.22;;;17.70;61.70;;;;;;4972507;28;20061;-77
2022/04/06 12:42:45;;;;;;;3.53;1.75;;;17.70;60.30;;;;;;5016702;28;20036;-77
2022/04/06 12:45:10;;;;;;;3.50;1.85;;;17.70;60.00;;;;;;5014757;28;20033;-77
2022/04/06 12:47:36;;;;;;;7.00;1.63;;;17.60;59.80;;;;;;4993061;28;20718;-77
2022/04/06 12:50:10;;;;;;;4.35;1.48;;;17.60;59.70;;;;;;5019090;28;20508;-77
2022/04/06 12:52:37;;;;;;;3.90;1.50;;;17.70;59.10;;;;;;5024079;28;20037;-78
2022/04/06 12:55:06;;;;;;;2.70;1.30;;;17.70;59.40;;;;;;5003353;28;20092;-77
2022/04/06 12:57:32;;;;;;;3.20;1.40;;;17.90;59.20;;;;;;4999953;28;20033;-78
2022/04/06 13:00:19;;;;;;;2.67;1.50;;;18.00;59.10;;;;;;5019355;28;20497;-77
2022/04/06 13:02:50;;;;;;;7.13;1.80;;;18.00;57.60;;;;;;5019949;28;20100;-77
2022/04/06 13:05:17;;;;;;;5.18;2.10;;;18.10;58.30;;;;;;5006982;28;20036;-77
2022/04/06 13:07:44;;;;;;;3.00;1.42;;;18.10;58.40;;;;;;5024559;28;20041;-76
2022/04/06 13:10:20;;;;;;;6.93;1.77;;;18.20;58.30;;;;;;5020380;28;20037;-76
2022/04/06 13:12:47;;;;;;;4.55;2.05;;;18.20;57.40;;;;;;5018128;28;20043;-77
2022/04/06 13:15:13;;;;;;;2.90;1.70;;;18.30;57.90;;;;;;4993092;28;20675;-78
2022/04/06 13:17:39;;;;;;;6.78;2.10;;;18.40;57.70;;;;;;5015641;28;20096;-77
2022/04/06 13:20:10;;;;;;;5.72;1.70;;;18.50;57.30;;;;;;5017035;28;20041;-76